• Join FlightAware (Why Join?)
  • Login
  • US Flag 
01:38PM EDT


 

Airport Tracker/Info


-or-


 

Live Flight TrackerFlight Track Log ✈ UAL6073 ✈ 12-May-2014 ✈ KBNA - KDEN

Flight Track Log - Related Links

Times and Time Zones

All times are in EDT time to prevent confusion due to time zone crossing. See the UAL6073 flight status page for this flight to view local times or setup timezone preferences in your user account.

Time Position Orientation Groundspeed Altitude Reporting Facility
EDT Latitude Longitude Course Direction KTS MPH feet Rate Location/Type
05:14PM 36.1167 -86.6833 238° Southwest 139 160 1,200  Level Nashville TRACON
05:14PM 36.1000 -86.7167 238° Southwest 181 208 2,500 1,380 Climbing Nashville TRACON
05:15PM 36.1000 -86.7833 270° West 262 302 3,500 2,040 Climbing Nashville TRACON
05:16PM 36.1667 -86.8333 329° Northwest 280 322 6,200 2,520 Climbing Nashville TRACON
05:18PM 36.2506 -86.9411 314° West 281 323 9,800 1,800 Climbing Memphis Center
05:19PM 36.3178 -87.0153 318° Northwest 316 364 10,800 1,080 Climbing Memphis Center
05:20PM 36.3950 -87.0994 319° Northwest 357 411 12,100 1,500 Climbing Memphis Center
05:21PM 36.4697 -87.1869 317° Northwest 365 420 13,900 1,560 Climbing Memphis Center
05:22PM 36.5414 -87.2822 313° West 367 422 15,400 1,320 Climbing Memphis Center
05:23PM 36.6164 -87.3789 314° West 376 433 16,700 1,080 Climbing Memphis Center
05:24PM 36.6922 -87.4781 314° West 386 444 17,700 1,260 Climbing Memphis Center
05:25PM 36.7683 -87.5781 314° West 391 450 19,400 1,560 Climbing Memphis Center
05:26PM 36.8428 -87.6756 314° West 390 449 20,900 1,500 Climbing Memphis Center
05:27PM 36.9208 -87.7719 315° West 389 448 22,500 1,620 Climbing Memphis Center
05:28PM 36.9961 -87.8664 315° West 387 445 24,300 1,680 Climbing Memphis Center
05:29PM 37.0703 -87.9606 315° West 380 437 26,000 1,560 Climbing Memphis Center
05:30PM 37.1431 -88.0525 315° West 374 430 27,500 1,620 Climbing Memphis Center
05:31PM 37.2142 -88.1428 315° West 367 422 29,300 1,560 Climbing Memphis Center
05:32PM 37.2828 -88.2308 314° West 360 414 30,700 1,140 Climbing Memphis Center
05:33PM 37.3486 -88.3189 313° West 351 404 31,700 600 Climbing Memphis Center
05:34PM 37.4297 -88.4322 312° West 358 412 32,000 120 Climbing Memphis Center
05:35PM 37.5039 -88.5353 312° West 388 447 32,000  Level Memphis Center
05:36PM 37.5828 -88.6439 313° West 412 474 32,000  Level Memphis Center
05:37PM 37.6664 -88.7617 312° West 440 506 32,000 480 Level Memphis Center
05:38PM 37.7511 -88.8811 312° West 452 520 33,000 900 Climbing Memphis Center
05:39PM 37.8453 -89.0100 313° West 448 516 34,000 540 Climbing Kansas City Center
05:40PM 37.9247 -89.1303 310° West 446 513 34,300 660 Climbing Kansas City Center
05:41PM 38.0236 -89.2686 312° West 444 511 35,400 780 Climbing Kansas City Center
05:42PM 38.1031 -89.3819 312° West 436 502 36,000 240 Climbing Kansas City Center
05:43PM 38.1842 -89.4972 312° West 435 501 36,000  Level Kansas City Center
05:44PM 38.2683 -89.6183 312° West 454 522 36,000  Level Kansas City Center
05:46PM 38.3544 -89.7428 311° West 465 535 36,000  Level Kansas City Center
05:47PM 38.4489 -89.8783 312° West 467 537 36,000  Level Kansas City Center
05:48PM 38.5364 -90.0047 312° West 470 541 36,000  Level Kansas City Center
05:49PM 38.6350 -90.1467 312° West 479 551 36,000  Level Kansas City Center
05:50PM 38.7114 -90.2619 310° West 479 551 36,000  Level Kansas City Center
05:51PM 38.7978 -90.3883 311° West 478 550 36,000  Level Kansas City Center
05:53PM 38.9878 -90.6300 315° West 482 555 36,000  Level Kansas City Center
05:54PM 39.0858 -90.7444 318° Northwest 483 556 36,000  Level Kansas City Center
05:55PM 39.2039 -90.8853 317° Northwest 483 556 36,000  Level Kansas City Center
05:56PM 39.3017 -91.0014 317° Northwest 483 556 36,000  Level Kansas City Center
05:57PM 39.3972 -91.1136 318° Northwest 470 541 36,000  Level Kansas City Center
05:58PM 39.4928 -91.2278 317° Northwest 470 541 36,000  Level Kansas City Center
05:59PM 39.5764 -91.3736 307° West 459 528 36,000  Level Kansas City Center
06:00PM 39.6300 -91.5217 295° West 457 526 36,000  Level Kansas City Center
06:01PM 39.6872 -91.6675 297° West 457 526 36,000  Level Kansas City Center
06:02PM 39.7433 -91.8122 297° West 456 525 36,000  Level Kansas City Center
06:03PM 39.8000 -91.9556 297° West 453 521 36,000  Level Kansas City Center
06:04PM 39.8522 -92.1003 295° West 448 516 36,000  Level Kansas City Center
06:05PM 39.9342 -92.2147 313° West 442 509 36,000  Level Kansas City Center
06:06PM 40.0653 -92.3114 331° Northwest 450 518 36,000  Level Kansas City Center
06:07PM 40.1778 -92.3897 332° Northwest 452 520 36,000  Level Kansas City Center
06:08PM 40.2911 -92.4744 330° Northwest 462 532 36,000  Level Kansas City Center
06:09PM 40.3811 -92.5869 316° Northwest 464 534 36,000  Level Kansas City Center
06:10PM 40.4461 -92.7247 302° West 453 521 36,000  Level Kansas City Center
06:11PM 40.4711 -92.8783 282° West 433 498 36,000  Level Kansas City Center
06:13PM 40.5219 -93.1578 284° West 426 490 36,000  Level Minneapolis Center
06:14PM 40.5397 -93.2469 285° West 426 490 36,000  Level Kansas City Center
06:15PM 40.5700 -93.3986 285° West 427 491 36,000  Level Kansas City Center
06:16PM 40.6039 -93.5822 284° West 430 495 36,000  Level Kansas City Center
06:17PM 40.6328 -93.7400 284° West 442 509 36,000  Level Kansas City Center
06:18PM 40.6611 -93.8983 283° West 446 513 36,000  Level Kansas City Center
06:19PM 40.6894 -94.0572 283° West 447 514 36,000  Level Kansas City Center
06:20PM 40.7183 -94.2139 284° West 447 514 36,000  Level Kansas City Center
06:21PM 40.7458 -94.3728 283° West 447 514 36,000  Level Kansas City Center
06:22PM 40.7786 -94.5608 283° West 447 514 36,000  Level Kansas City Center
06:23PM 40.7947 -94.7189 278° West 438 504 36,000  Level Kansas City Center
06:24PM 40.8006 -94.8806 273° West 439 505 36,000  Level Kansas City Center
06:25PM 40.8047 -95.1350 271° West 437 503 36,000  Level Minneapolis Center
06:26PM 40.8081 -95.2953 272° West 437 503 36,000  Level Minneapolis Center
06:27PM 40.8111 -95.4572 271° West 437 503 36,000  Level Minneapolis Center
06:28PM 40.8136 -95.6181 271° West 438 504 36,000  Level Minneapolis Center
06:30PM 40.8153 -95.7756 271° West 433 498 36,000  Level Minneapolis Center
06:31PM 40.8175 -95.9275 271° West 424 488 36,000  Level Minneapolis Center
06:32PM 40.8200 -96.0775 271° West 416 479 36,000  Level Minneapolis Center
06:33PM 40.8214 -96.2267 271° West 410 472 36,000  Level Minneapolis Center
06:34PM 40.8228 -96.4031 271° West 406 467 36,000  Level Minneapolis Center
06:35PM 40.8244 -96.5508 271° West 403 464 36,000  Level Minneapolis Center
06:36PM 40.8506 -96.7067 283° West 440 506 36,000  Level Minneapolis Center
06:37PM 40.8944 -96.8619 291° West 450 518 36,000  Level Minneapolis Center
06:38PM 40.9428 -97.0211 292° West 460 529 36,000  Level Minneapolis Center
06:39PM 41.0289 -97.1647 309° West 490 564 36,000  Level Minneapolis Center
06:40PM 41.1167 -97.3094 309° West 498 573 36,000  Level Minneapolis Center
06:41PM 41.2506 -97.4486 322° Northwest 521 600 36,000  Level Minneapolis Center
06:42PM 41.3650 -97.5750 320° Northwest 521 600 36,000  Level Minneapolis Center
06:43PM 41.4092 -97.7272 291° West 454 522 36,000  Level Minneapolis Center
06:44PM 41.3867 -97.8700 258° West 400 460 36,000  Level Minneapolis Center
06:45PM 41.3572 -98.0122 255° West 395 455 36,000  Level Minneapolis Center
06:46PM 41.3236 -98.1789 255° West 399 459 36,000  Level Minneapolis Center
06:47PM 41.2939 -98.3225 255° West 401 461 36,000  Level Minneapolis Center
06:48PM 41.2642 -98.4683 255° West 399 459 36,000  Level Minneapolis Center
06:49PM 41.2353 -98.6067 255° West 394 453 36,000  Level Minneapolis Center
06:50PM 41.2075 -98.7414 255° West 385 443 36,000  Level Minneapolis Center
06:51PM 41.1786 -98.8753 254° West 382 440 36,000  Level Minneapolis Center
06:52PM 41.1506 -99.0086 254° West 380 437 36,000  Level Minneapolis Center
06:53PM 41.1208 -99.1492 254° West 372 428 36,000  Level Minneapolis Center
06:54PM 41.0925 -99.2814 254° West 372 428 36,000  Level Minneapolis Center
06:55PM 41.0692 -99.3875 254° West 373 429 36,000  Level Denver Center
06:56PM 41.0331 -99.5525 254° West 385 443 36,000  Level Denver Center
06:57PM 41.0042 -99.6906 255° West 386 444 36,000 -60 Level Denver Center
06:58PM 41.0033 -99.8453 270° West 408 470 35,900  Descending Denver Center
06:59PM 40.9789 -99.9706 256° West 374 430 36,000  Climbing Denver Center
07:00PM 40.9500 -100.1214 256° West 374 430 36,000  Level Denver Center
07:01PM 40.9247 -100.2569 256° West 390 449 36,000  Level Denver Center
07:02PM 40.8989 -100.3931 256° West 394 453 36,000  Level Denver Center
07:03PM 40.8686 -100.5508 256° West 396 456 36,000  Level Denver Center
07:04PM 40.8422 -100.6825 255° West 393 452 36,000  Level Denver Center
07:05PM 40.8144 -100.8272 256° West 392 451 36,000  Level Denver Center
07:06PM 40.7833 -100.9817 255° West 392 451 36,000  Level Denver Center
07:07PM 40.7572 -101.1136 255° West 391 450 36,000  Level Denver Center
07:08PM 40.7308 -101.2461 255° West 391 450 36,000  Level Denver Center
07:10PM 40.6997 -101.3997 255° West 390 449 36,000  Level Denver Center
07:11PM 40.6736 -101.5311 255° West 389 448 36,000  Level Denver Center
07:12PM 40.6422 -101.6828 255° West 387 445 36,000  Level Denver Center
07:13PM 40.6156 -101.8133 255° West 387 445 36,000  Level Denver Center
07:14PM 40.5842 -101.9647 255° West 386 444 36,000  Level Denver Center
07:15PM 40.5572 -102.0947 255° West 385 443 36,000  Level Denver Center
07:16PM 40.5308 -102.2258 255° West 386 444 36,000  Level Denver Center
07:17PM 40.4978 -102.3789 254° West 388 447 36,000  Level Denver Center
07:18PM 40.4694 -102.5114 254° West 392 451 36,000  Level Denver Center
07:19PM 40.4372 -102.6667 255° West 393 452 36,000  Level Denver Center
07:20PM 40.4081 -102.8006 254° West 395 455 36,000 -960 Level Denver Center
07:21PM 40.3775 -102.9425 254° West 402 463 34,100 -1,320 Descending Denver Center
07:22PM 40.3497 -103.0842 256° West 405 466 33,300 -1,080 Descending Denver Center
07:23PM 40.3219 -103.2292 256° West 413 475 31,900 -1,680 Descending Denver Center
07:24PM 40.2933 -103.3756 256° West 415 478 29,900 -2,520 Descending Denver Center
07:25PM 40.2597 -103.5478 256° West 409 471 26,800 -2,580 Descending Denver Center
07:26PM 40.2342 -103.6783 256° West 374 430 24,700 -2,160 Descending Denver Center
07:27PM 40.2094 -103.8033 256° West 362 417 22,400 -2,400 Descending Denver Center
07:28PM 40.1703 -103.9206 246° West 338 389 19,900 -2,340 Descending Denver Center
07:29PM 40.1200 -104.0244 238° Southwest 338 389 17,700 -2,100 Descending Denver Center
07:30PM 40.0725 -104.1300 240° Southwest 337 388 15,700 -1,800 Descending Denver Center
07:31PM 40.0194 -104.2433 239° Southwest 336 387 14,100 -1,140 Descending Denver Center
07:32PM 39.9714 -104.3472 239° Southwest 335 386 13,400 -660 Descending Denver Center
07:33PM 39.9211 -104.4517 238° Southwest 337 388 12,800 -1,080 Descending Denver Center
07:34PM 39.8375 -104.4953 202° Southwest 320 368 11,300 -1,200 Descending Denver Center
07:35PM 39.7522 -104.5011 183° South 279 321 10,400 -1,140 Descending Denver Center
07:36PM 39.6756 -104.5033 181° South 274 315 9,000 -840 Descending Denver Center
07:37PM 39.6261 -104.5483 215° Southwest 223 257 8,700 -540 Descending Denver Center
07:38PM 39.6347 -104.6225 279° West 213 245 8,000 -360 Descending Denver Center
07:39PM 39.6797 -104.6550 331° Northwest 193 222 8,000 -300 Level Denver Center
07:40PM 39.7306 -104.6611 355° North 188 216 7,400 -780 Descending Denver Center
07:41PM 39.7761 -104.6606 North 145 167 6,500 -840 Descending Denver Center
07:42PM 39.8119 -104.6600 North 131 151 5,800 -540 Descending Denver Center
07:43PM 39.8439 -104.6614 358° North 128 147 5,400 -420 Descending Denver Center